createdAt,value
2019-02-21T00:00:53.015Z,9.93
2019-02-21T00:03:20.759Z,15.03
2019-02-21T00:05:47.736Z,14.53
2019-02-21T00:08:14.813Z,22.70
2019-02-21T00:10:41.797Z,12.27
2019-02-21T00:13:09.575Z,17.63
2019-02-21T00:15:36.768Z,16.93
2019-02-21T00:18:03.575Z,27.07
2019-02-21T00:20:30.491Z,24.03
2019-02-21T00:22:57.361Z,17.90
2019-02-21T00:25:24.383Z,23.93
2019-02-21T00:27:51.724Z,20.33
2019-02-21T00:30:18.742Z,19.97
2019-02-21T00:32:46.397Z,23.07
2019-02-21T00:35:13.604Z,10.70
2019-02-21T00:37:40.510Z,27.17
2019-02-21T00:40:07.715Z,26.30
2019-02-21T00:42:34.967Z,15.80
2019-02-21T00:45:02.070Z,21.73
2019-02-21T00:47:29.054Z,10.87
2019-02-21T00:49:56.030Z,17.63
2019-02-21T00:52:23.842Z,19.60
2019-02-21T00:54:51.197Z,9.33
2019-02-21T00:57:17.864Z,29.63
2019-02-21T00:59:45.155Z,19.10
2019-02-21T01:02:13.564Z,24.13
2019-02-21T01:04:41.638Z,30.53
2019-02-21T01:07:08.709Z,24.23
2019-02-21T01:09:36.665Z,34.13
2019-02-21T01:12:04.248Z,10.70
2019-02-21T01:14:31.675Z,16.10
2019-02-21T01:16:58.532Z,24.13
2019-02-21T01:19:25.659Z,16.43
2019-02-21T01:21:52.873Z,19.60
2019-02-21T01:24:20.098Z,13.33
2019-02-21T01:26:47.426Z,11.00
2019-02-21T01:29:14.139Z,21.57
2019-02-21T01:31:41.830Z,31.97
2019-02-21T01:34:08.770Z,10.90
2019-02-21T01:36:36.763Z,20.63
2019-02-21T01:39:05.832Z,25.70
2019-02-21T01:41:33.248Z,23.20
2019-02-21T01:44:00.874Z,23.83
2019-02-21T01:46:28.529Z,22.83
2019-02-21T01:48:56.541Z,33.20
2019-02-21T01:51:23.567Z,13.23
2019-02-21T01:53:50.753Z,22.57
2019-02-21T01:56:17.645Z,27.37
2019-02-21T01:58:45.296Z,28.57
2019-02-21T02:01:26.150Z,35.07
2019-02-21T02:04:05.289Z,23.77
2019-02-21T02:06:33.771Z,19.27
2019-02-21T02:09:00.534Z,29.07
2019-02-21T02:11:27.744Z,22.30
2019-02-21T02:13:55.150Z,10.07
2019-02-21T02:16:21.849Z,25.57
2019-02-21T02:18:48.512Z,22.97
2019-02-21T02:21:15.644Z,14.43
2019-02-21T02:23:42.333Z,31.80
2019-02-21T02:26:09.630Z,33.17
2019-02-21T02:28:37.689Z,29.57
2019-02-21T02:31:04.874Z,16.20
2019-02-21T02:33:31.546Z,18.20
2019-02-21T02:35:59.258Z,23.47
2019-02-21T02:38:26.418Z,24.23
2019-02-21T02:40:53.338Z,35.70
2019-02-21T02:43:21.327Z,22.07
2019-02-21T02:45:48.585Z,22.03
2019-02-21T02:48:15.258Z,23.97
2019-02-21T02:50:41.949Z,27.30
2019-02-21T02:53:09.402Z,29.80
2019-02-21T02:55:36.651Z,24.20
2019-02-21T02:58:06.429Z,25.63
2019-02-21T03:00:32.503Z,25.67
2019-02-21T03:02:59.745Z,29.20
2019-02-21T03:05:26.637Z,15.13
2019-02-21T03:07:53.321Z,16.13
2019-02-21T03:10:21.319Z,19.20
2019-02-21T03:12:48.259Z,23.07
2019-02-21T03:15:15.276Z,20.10
2019-02-21T03:17:41.985Z,11.03
2019-02-21T03:20:08.774Z,18.53
2019-02-21T03:22:36.541Z,34.47
2019-02-21T03:25:05.040Z,9.70
2019-02-21T03:27:31.749Z,23.93
2019-02-21T03:29:59.219Z,28.53
2019-02-21T03:32:26.302Z,20.27
2019-02-21T03:34:53.464Z,25.97
2019-02-21T03:37:20.548Z,13.90
2019-02-21T03:39:48.122Z,17.33
2019-02-21T03:42:14.803Z,26.47
2019-02-21T03:44:42.318Z,26.33
2019-02-21T03:47:09.299Z,18.07
2019-02-21T03:49:35.958Z,27.40
2019-02-21T03:52:02.640Z,22.83
2019-02-21T03:54:30.825Z,14.70
2019-02-21T03:56:57.500Z,17.30
2019-02-21T03:59:24.820Z,18.33
2019-02-21T04:02:04.540Z,18.37
2019-02-21T04:04:22.068Z,12.50
2019-02-21T04:06:49.336Z,19.87
2019-02-21T04:09:16.662Z,26.07
2019-02-21T04:11:44.437Z,15.83
2019-02-21T04:14:11.224Z,26.47
2019-02-21T04:16:38.322Z,55.00
2019-02-21T04:19:05.089Z,23.27
2019-02-21T04:21:31.750Z,17.37
2019-02-21T04:23:58.976Z,26.70
2019-02-21T04:26:26.101Z,34.73
2019-02-21T04:28:53.699Z,38.50
2019-02-21T04:31:20.823Z,24.17
2019-02-21T04:33:47.491Z,33.37
2019-02-21T04:36:14.407Z,23.33
2019-02-21T04:38:41.073Z,19.43
2019-02-21T04:41:08.592Z,23.07
2019-02-21T04:43:35.739Z,24.60
2019-02-21T04:46:03.094Z,23.53
2019-02-21T04:48:30.659Z,34.23
2019-02-21T04:50:58.428Z,8.60
2019-02-21T04:53:25.481Z,18.73
2019-02-21T04:55:52.685Z,33.20
2019-02-21T04:58:20.051Z,22.17
2019-02-21T05:00:47.134Z,28.10
2019-02-21T05:03:13.903Z,11.17
2019-02-21T05:05:41.130Z,36.63
2019-02-21T05:08:07.803Z,28.30
2019-02-21T05:10:35.090Z,23.73
2019-02-21T05:13:02.779Z,18.00
2019-02-21T05:15:30.034Z,32.37
2019-02-21T05:17:56.700Z,21.20
2019-02-21T05:20:23.977Z,29.20
2019-02-21T05:22:51.377Z,17.50
2019-02-21T05:25:18.562Z,26.13
2019-02-21T05:27:53.877Z,31.40
2019-02-21T05:30:23.142Z,18.80
2019-02-21T05:33:04.565Z,12.93
2019-02-21T05:35:39.571Z,15.10
2019-02-21T05:38:20.323Z,27.97
2019-02-21T05:40:55.274Z,25.10
2019-02-21T05:43:31.159Z,12.63
2019-02-21T05:46:07.166Z,14.40
2019-02-21T05:48:53.934Z,22.50
2019-02-21T05:51:31.890Z,28.93
2019-02-21T05:54:21.023Z,15.07
2019-02-21T05:57:19.746Z,23.87
2019-02-21T05:59:52.851Z,23.17
2019-02-21T06:02:53.328Z,22.03
2019-02-21T06:05:42.718Z,23.60
2019-02-21T06:08:35.173Z,33.73
2019-02-21T06:11:25.050Z,17.20
2019-02-21T06:14:07.706Z,21.17
2019-02-21T06:17:07.110Z,41.00
2019-02-21T06:19:59.588Z,26.30
2019-02-21T06:22:51.138Z,14.37
2019-02-21T06:25:29.952Z,20.87
2019-02-21T06:28:05.510Z,24.93
2019-02-21T06:30:43.412Z,24.23
2019-02-21T06:33:11.378Z,26.37
2019-02-21T06:35:38.345Z,24.47
2019-02-21T06:38:05.470Z,26.40
2019-02-21T06:40:32.836Z,32.13
2019-02-21T06:42:59.618Z,20.80
2019-02-21T06:45:26.287Z,40.27
2019-02-21T06:47:53.486Z,18.10
2019-02-21T06:50:26.958Z,25.03
2019-02-21T06:52:51.374Z,33.03
2019-02-21T06:55:20.584Z,26.63
2019-02-21T06:57:47.602Z,26.03
2019-02-21T07:00:15.148Z,27.40
2019-02-21T07:02:42.991Z,15.30
2019-02-21T07:05:10.347Z,35.17
2019-02-21T07:07:37.007Z,18.40
2019-02-21T07:10:04.950Z,23.67
2019-02-21T07:12:32.834Z,32.57
2019-02-21T07:15:00.461Z,29.90
2019-02-21T07:17:27.558Z,20.83
2019-02-21T07:19:54.807Z,22.53
2019-02-21T07:22:22.648Z,23.87
2019-02-21T07:24:54.160Z,32.20
2019-02-21T07:27:21.166Z,31.40
2019-02-21T07:29:48.227Z,21.30
2019-02-21T07:32:15.255Z,17.40
2019-02-21T07:34:42.249Z,21.47
2019-02-21T07:37:18.207Z,13.47
2019-02-21T07:39:39.586Z,36.10
2019-02-21T07:42:06.626Z,24.97
2019-02-21T07:44:33.902Z,29.73
2019-02-21T07:47:01.203Z,24.47
2019-02-21T07:49:27.974Z,25.93
2019-02-21T07:51:55.429Z,33.27
2019-02-21T07:54:22.095Z,47.03
2019-02-21T07:56:49.629Z,31.27
2019-02-21T07:59:16.779Z,30.40
2019-02-21T08:01:43.812Z,31.50
2019-02-21T08:04:10.588Z,32.07
2019-02-21T08:06:37.876Z,31.93
2019-02-21T08:09:07.077Z,30.83
2019-02-21T08:11:34.581Z,19.97
2019-02-21T08:14:01.283Z,21.53
2019-02-21T08:16:28.330Z,10.60
2019-02-21T08:18:55.009Z,39.17
2019-02-21T08:21:22.301Z,20.30
2019-02-21T08:23:51.012Z,23.60
2019-02-21T08:26:20.082Z,37.87
2019-02-21T08:28:47.560Z,26.40
2019-02-21T08:31:14.799Z,33.10
2019-02-21T08:34:06.951Z,25.57
2019-02-21T08:36:33.962Z,46.30
2019-02-21T08:39:01.273Z,20.77
2019-02-21T08:41:30.766Z,36.13
2019-02-21T08:43:57.574Z,33.93
2019-02-21T08:46:25.118Z,27.57
2019-02-21T08:48:52.334Z,28.90
2019-02-21T08:51:19.595Z,32.73
2019-02-21T08:53:46.936Z,34.40
2019-02-21T08:56:13.789Z,37.90
2019-02-21T08:58:40.467Z,37.90
2019-02-21T09:01:08.405Z,35.80
2019-02-21T09:03:36.088Z,37.37
2019-02-21T09:06:03.362Z,30.13
2019-02-21T09:08:34.991Z,34.53
2019-02-21T09:11:00.405Z,25.40
2019-02-21T09:13:27.350Z,24.17
2019-02-21T09:15:56.040Z,31.17
2019-02-21T09:18:23.364Z,36.70
2019-02-21T09:20:50.311Z,30.30
2019-02-21T09:23:18.429Z,44.53
2019-02-21T09:25:46.027Z,36.80
2019-02-21T09:28:15.717Z,49.57
2019-02-21T09:30:42.679Z,27.80
2019-02-21T09:33:17.324Z,16.40
2019-02-21T09:35:38.641Z,33.63
2019-02-21T09:38:05.879Z,44.63
2019-02-21T09:40:33.990Z,34.50
2019-02-21T09:43:00.921Z,38.60
2019-02-21T09:45:27.720Z,15.97
2019-02-21T09:47:55.305Z,49.70
2019-02-21T09:50:22.074Z,27.63
2019-02-21T09:52:49.001Z,59.13
2019-02-21T09:55:16.902Z,60.50
2019-02-21T09:57:44.389Z,31.43
2019-02-21T10:00:14.577Z,43.03
2019-02-21T10:02:42.163Z,43.20
2019-02-21T10:05:09.590Z,25.57
2019-02-21T10:07:37.330Z,37.30
2019-02-21T10:10:08.111Z,28.73
2019-02-21T10:12:35.259Z,63.43
2019-02-21T10:15:02.112Z,45.67
2019-02-21T10:17:31.114Z,49.23
2019-02-21T10:19:57.801Z,46.33
2019-02-21T10:22:26.144Z,33.53
2019-02-21T10:24:53.189Z,60.50
2019-02-21T10:27:20.381Z,21.17
2019-02-21T10:29:48.326Z,74.40
2019-02-21T10:32:15.139Z,33.93
2019-02-21T10:34:43.282Z,36.70
2019-02-21T10:37:10.801Z,57.80
2019-02-21T10:39:37.741Z,54.50
2019-02-21T10:42:04.866Z,59.20
2019-02-21T10:44:32.536Z,36.10
2019-02-21T10:46:59.735Z,75.73
2019-02-21T10:49:27.486Z,53.93
2019-02-21T10:51:54.598Z,41.27
2019-02-21T10:54:21.979Z,13.40
2019-02-21T10:56:49.777Z,60.30
2019-02-21T10:59:16.841Z,54.50
2019-02-21T11:01:43.750Z,25.43
2019-02-21T11:04:11.488Z,37.27
2019-02-21T11:06:38.172Z,56.80
2019-02-21T11:09:07.281Z,28.30
2019-02-21T11:11:35.095Z,30.17
2019-02-21T11:14:02.321Z,36.13
2019-02-21T11:16:29.219Z,54.03
2019-02-21T11:18:56.477Z,52.63
2019-02-21T11:21:23.750Z,64.77
2019-02-21T11:23:50.935Z,50.63
2019-02-21T11:26:18.460Z,32.77
2019-02-21T11:28:47.368Z,56.03
2019-02-21T11:31:15.763Z,70.57
2019-02-21T11:33:43.069Z,38.80
2019-02-21T11:36:10.527Z,23.33
2019-02-21T11:38:37.441Z,48.13
2019-02-21T11:41:04.724Z,33.83
2019-02-21T11:43:31.397Z,31.00
2019-02-21T11:45:58.226Z,46.57
2019-02-21T11:48:25.143Z,31.43
2019-02-21T11:50:52.176Z,41.43
2019-02-21T11:53:20.461Z,40.33
2019-02-21T11:55:47.407Z,42.17
2019-02-21T11:58:14.337Z,33.10
2019-02-21T12:00:42.482Z,27.00
2019-02-21T12:03:09.392Z,20.97
2019-02-21T12:05:36.707Z,42.50
2019-02-21T12:08:04.956Z,20.73
2019-02-21T12:10:31.740Z,42.10
2019-02-21T12:12:58.932Z,24.80
2019-02-21T12:15:25.611Z,37.73
2019-02-21T12:17:52.888Z,31.10
2019-02-21T12:20:19.897Z,47.73
2019-02-21T12:22:47.470Z,32.37
2019-02-21T12:25:16.330Z,38.93
2019-02-21T12:27:43.012Z,43.13
2019-02-21T12:30:12.269Z,30.60
2019-02-21T12:32:39.411Z,39.10
2019-02-21T12:35:06.286Z,36.30
2019-02-21T12:37:33.498Z,40.30
2019-02-21T12:40:00.284Z,41.70
2019-02-21T12:42:27.214Z,32.47
2019-02-21T12:44:54.538Z,29.37
2019-02-21T12:47:21.786Z,28.13
2019-02-21T12:49:48.525Z,30.40
2019-02-21T12:52:15.289Z,50.20
2019-02-21T12:54:42.616Z,63.50
2019-02-21T12:57:09.866Z,37.17
2019-02-21T12:59:37.329Z,40.17
2019-02-21T13:02:05.150Z,51.87
2019-02-21T13:04:33.435Z,50.03
2019-02-21T13:07:01.235Z,39.97
2019-02-21T13:09:28.190Z,44.40
2019-02-21T13:11:55.117Z,23.67
2019-02-21T13:14:22.815Z,32.87
2019-02-21T13:16:49.511Z,39.10
2019-02-21T13:19:16.839Z,73.47
2019-02-21T13:21:44.599Z,41.70
2019-02-21T13:24:11.977Z,29.63
2019-02-21T13:26:39.146Z,27.73
2019-02-21T13:29:06.633Z,24.97
2019-02-21T13:31:33.942Z,47.50
2019-02-21T13:34:01.766Z,22.87
2019-02-21T13:36:28.847Z,33.33
2019-02-21T13:38:56.841Z,41.30
2019-02-21T13:41:23.939Z,49.93
2019-02-21T13:43:50.620Z,45.93
2019-02-21T13:46:17.870Z,17.97
2019-02-21T13:48:45.334Z,31.77
2019-02-21T13:51:12.389Z,53.80
2019-02-21T13:53:39.416Z,42.87
2019-02-21T13:56:06.477Z,38.80
2019-02-21T13:58:33.279Z,25.83
2019-02-21T14:00:59.949Z,52.87
2019-02-21T14:03:26.623Z,47.93
2019-02-21T14:06:03.234Z,60.73
2019-02-21T14:08:22.795Z,43.33
2019-02-21T14:10:50.199Z,60.07
2019-02-21T14:13:17.357Z,14.10
2019-02-21T14:15:44.132Z,42.23
2019-02-21T14:18:11.382Z,32.27
2019-02-21T14:20:45.256Z,33.63
2019-02-21T14:23:07.286Z,52.10
2019-02-21T14:25:40.838Z,31.37
2019-02-21T14:28:04.194Z,47.03
2019-02-21T14:30:31.394Z,50.37
2019-02-21T14:32:58.819Z,36.80
2019-02-21T14:35:26.292Z,31.73
2019-02-21T14:37:53.489Z,19.43
2019-02-21T14:40:20.273Z,38.40
2019-02-21T14:42:47.653Z,56.30
2019-02-21T14:45:16.166Z,57.80
2019-02-21T14:47:43.382Z,43.90
2019-02-21T14:50:10.617Z,30.90
2019-02-21T14:52:37.934Z,49.70
2019-02-21T14:55:06.264Z,46.57
2019-02-21T14:57:41.008Z,34.90
2019-02-21T15:00:05.813Z,54.67
2019-02-21T15:02:33.309Z,37.27
2019-02-21T15:05:00.379Z,50.63
2019-02-21T15:07:27.720Z,102.47
2019-02-21T15:09:55.268Z,122.13
2019-02-21T15:12:22.138Z,44.20
2019-02-21T15:14:48.790Z,38.73
2019-02-21T15:17:15.441Z,29.57
2019-02-21T15:19:43.170Z,32.43
2019-02-21T15:22:09.946Z,60.50
2019-02-21T15:24:36.711Z,49.20
2019-02-21T15:27:08.475Z,36.80
2019-02-21T15:29:35.153Z,38.07
2019-02-21T15:32:10.476Z,36.70
2019-02-21T15:34:31.582Z,47.57
2019-02-21T15:36:59.068Z,42.83
2019-02-21T15:39:25.766Z,48.80
2019-02-21T15:41:53.463Z,32.77
2019-02-21T15:44:21.525Z,28.20
2019-02-21T15:46:48.902Z,43.17
2019-02-21T15:49:15.757Z,17.70
2019-02-21T15:51:42.721Z,45.57
2019-02-21T15:54:09.397Z,34.13
2019-02-21T15:56:36.077Z,29.40
2019-02-21T15:59:02.849Z,50.70
2019-02-21T16:01:30.572Z,38.67
2019-02-21T16:03:57.278Z,32.87
2019-02-21T16:06:24.842Z,41.03
2019-02-21T16:08:52.015Z,37.47
2019-02-21T16:11:18.810Z,40.87
2019-02-21T16:13:46.241Z,31.23
2019-02-21T16:16:14.379Z,30.47
2019-02-21T16:18:41.706Z,26.80
2019-02-21T16:21:09.076Z,29.23
2019-02-21T16:23:35.757Z,25.60
2019-02-21T16:26:02.752Z,30.87
2019-02-21T16:28:30.758Z,14.83
2019-02-21T16:30:57.965Z,28.30
2019-02-21T16:33:25.446Z,15.50
2019-02-21T16:35:52.780Z,18.77
2019-02-21T16:38:20.031Z,9.63
2019-02-21T16:40:46.704Z,16.23
2019-02-21T16:43:13.975Z,13.50
2019-02-21T16:45:46.184Z,18.13
2019-02-21T16:48:10.733Z,11.10
2019-02-21T16:50:38.086Z,15.47
2019-02-21T16:53:04.738Z,18.50
2019-02-21T16:55:31.821Z,13.00
2019-02-21T16:57:59.506Z,15.27
2019-02-21T17:00:38.915Z,11.77
2019-02-21T17:02:56.045Z,5.63
2019-02-21T17:05:23.104Z,15.37
2019-02-21T17:07:50.944Z,10.20
2019-02-21T17:10:17.715Z,11.07
2019-02-21T17:12:44.989Z,10.53
2019-02-21T17:15:12.531Z,10.87
2019-02-21T17:17:39.924Z,22.37
2019-02-21T17:20:08.957Z,22.07
2019-02-21T17:22:36.323Z,9.83
2019-02-21T17:25:04.522Z,20.57
2019-02-21T17:27:31.651Z,26.17
2019-02-21T17:29:59.412Z,14.33
2019-02-21T17:32:26.435Z,20.27
2019-02-21T17:34:53.121Z,4.30
2019-02-21T17:37:24.978Z,11.27
2019-02-21T17:39:49.298Z,32.17
2019-02-21T17:42:15.978Z,11.47
2019-02-21T17:44:43.819Z,25.30
2019-02-21T17:47:10.776Z,17.83
2019-02-21T17:49:37.726Z,40.87
2019-02-21T17:52:05.039Z,23.73
2019-02-21T17:54:31.705Z,27.30
2019-02-21T17:56:59.515Z,24.20
2019-02-21T17:59:27.663Z,28.57
2019-02-21T18:01:55.011Z,16.47
2019-02-21T18:04:22.030Z,25.27
2019-02-21T18:06:50.035Z,37.57
2019-02-21T18:09:17.165Z,22.77
2019-02-21T18:11:44.174Z,18.43
2019-02-21T18:14:11.532Z,36.00
2019-02-21T18:16:38.717Z,10.80
2019-02-21T18:19:05.754Z,51.57
2019-02-21T18:21:32.837Z,21.87
2019-02-21T18:23:59.619Z,26.47
2019-02-21T18:26:26.886Z,74.20
2019-02-21T18:28:54.285Z,31.30
2019-02-21T18:31:22.849Z,30.37
2019-02-21T18:33:51.010Z,31.20
2019-02-21T18:36:18.127Z,20.03
2019-02-21T18:38:45.501Z,17.07
2019-02-21T18:41:12.454Z,45.67
2019-02-21T18:43:39.234Z,39.73
2019-02-21T18:46:06.052Z,30.60
2019-02-21T18:48:32.807Z,38.93
2019-02-21T18:51:00.389Z,50.30
2019-02-21T18:53:28.318Z,37.50
2019-02-21T18:55:55.351Z,47.50
2019-02-21T18:58:22.834Z,39.43
2019-02-21T19:00:50.690Z,31.70
2019-02-21T19:03:18.154Z,33.57
2019-02-21T19:05:45.605Z,64.53
2019-02-21T19:08:12.955Z,43.43
2019-02-21T19:10:40.709Z,28.80
2019-02-21T19:13:08.114Z,40.90
2019-02-21T19:15:35.382Z,34.33
2019-02-21T19:18:03.705Z,35.00
2019-02-21T19:20:31.378Z,41.60
2019-02-21T19:22:59.682Z,32.40
2019-02-21T19:25:27.080Z,40.00
2019-02-21T19:27:54.804Z,26.97
2019-02-21T19:30:27.621Z,35.03
2019-02-21T19:32:54.282Z,41.13
2019-02-21T19:35:22.973Z,33.57
2019-02-21T19:37:49.991Z,44.37
2019-02-21T19:40:16.770Z,41.73
2019-02-21T19:42:43.754Z,45.13
2019-02-21T19:45:11.353Z,27.43
2019-02-21T19:47:38.129Z,46.57
2019-02-21T19:50:05.998Z,52.27
2019-02-21T19:52:33.521Z,42.87
2019-02-21T19:55:00.328Z,40.93
2019-02-21T19:57:27.938Z,46.03
2019-02-21T19:59:55.294Z,56.40
2019-02-21T20:02:23.571Z,40.00
2019-02-21T20:04:53.438Z,35.43
2019-02-21T20:07:20.694Z,50.90
2019-02-21T20:09:48.618Z,58.53
2019-02-21T20:12:16.325Z,47.57
2019-02-21T20:14:43.098Z,55.30
2019-02-21T20:17:10.195Z,47.40
2019-02-21T20:19:37.435Z,51.53
2019-02-21T20:22:05.061Z,43.30
2019-02-21T20:24:31.729Z,57.23
2019-02-21T20:27:00.342Z,65.47
2019-02-21T20:29:28.049Z,53.53
2019-02-21T20:31:55.150Z,50.50
2019-02-21T20:34:22.441Z,59.17
2019-02-21T20:36:51.301Z,63.00
2019-02-21T20:39:19.003Z,43.70
2019-02-21T20:41:45.686Z,83.40
2019-02-21T20:44:12.449Z,38.70
2019-02-21T20:46:39.413Z,51.27
2019-02-21T20:49:06.316Z,49.63
2019-02-21T20:51:34.705Z,84.90
2019-02-21T20:54:02.440Z,84.67
2019-02-21T20:56:30.189Z,73.77
2019-02-21T20:58:57.879Z,71.50
2019-02-21T21:01:25.492Z,71.10
2019-02-21T21:03:52.763Z,37.30
2019-02-21T21:06:20.516Z,80.63
2019-02-21T21:08:47.322Z,91.20
2019-02-21T21:11:14.919Z,68.63
2019-02-21T21:13:44.192Z,89.43
2019-02-21T21:16:12.177Z,74.53
2019-02-21T21:18:39.773Z,80.23
2019-02-21T21:21:06.605Z,92.37
2019-02-21T21:23:33.248Z,111.27
2019-02-21T21:26:00.704Z,109.97
2019-02-21T21:28:28.353Z,105.27
2019-02-21T21:30:56.004Z,98.80
2019-02-21T21:33:24.621Z,104.60
2019-02-21T21:35:52.246Z,164.07
2019-02-21T21:38:24.153Z,135.23
2019-02-21T21:40:48.101Z,100.10
2019-02-21T21:43:15.106Z,100.40
2019-02-21T21:45:41.768Z,122.80
2019-02-21T21:48:08.821Z,130.30
2019-02-21T21:50:36.939Z,159.00
2019-02-21T21:53:05.757Z,200.43
2019-02-21T21:55:32.519Z,120.17
2019-02-21T21:57:59.421Z,206.90
2019-02-21T22:00:27.114Z,110.17
2019-02-21T22:02:54.400Z,101.13
2019-02-21T22:05:21.426Z,93.70
2019-02-21T22:07:49.645Z,183.17
2019-02-21T22:10:16.808Z,106.20
2019-02-21T22:12:45.026Z,152.43
2019-02-21T22:15:13.154Z,174.97
2019-02-21T22:17:42.218Z,81.70
2019-02-21T22:20:09.683Z,161.50
2019-02-21T22:22:37.445Z,57.50
2019-02-21T22:25:08.973Z,128.90
2019-02-21T22:27:36.154Z,101.73
2019-02-21T22:30:05.226Z,192.33
2019-02-21T22:32:33.171Z,99.30
2019-02-21T22:35:00.317Z,66.70
2019-02-21T22:37:27.065Z,95.33
2019-02-21T22:39:54.293Z,122.53
2019-02-21T22:42:21.977Z,110.20
2019-02-21T22:44:49.479Z,241.37
2019-02-21T22:47:16.367Z,119.57
2019-02-21T22:49:43.529Z,157.90
2019-02-21T22:52:12.482Z,117.27
2019-02-21T22:54:48.081Z,116.37
2019-02-21T22:57:18.452Z,121.50
2019-02-21T22:59:45.586Z,114.30
2019-02-21T23:02:13.202Z,100.83
2019-02-21T23:05:05.222Z,108.87
2019-02-21T23:08:08.337Z,141.30
2019-02-21T23:10:35.998Z,76.67
2019-02-21T23:13:03.514Z,112.63
2019-02-21T23:15:30.298Z,107.03
2019-02-21T23:17:56.969Z,88.70
2019-02-21T23:20:23.767Z,76.57
2019-02-21T23:22:51.184Z,97.67
2019-02-21T23:25:18.375Z,88.30
2019-02-21T23:27:46.470Z,85.90
2019-02-21T23:30:13.989Z,104.50
2019-02-21T23:32:41.698Z,96.97
2019-02-21T23:35:14.749Z,99.93
2019-02-21T23:37:42.136Z,86.50
2019-02-21T23:40:09.667Z,75.47
2019-02-21T23:42:36.412Z,78.60
2019-02-21T23:45:05.316Z,81.90
2019-02-21T23:47:32.570Z,78.63
2019-02-21T23:49:59.258Z,89.93
2019-02-21T23:52:27.327Z,83.50
2019-02-21T23:54:57.931Z,80.27
2019-02-21T23:57:25.321Z,79.50
2019-02-21T23:59:53.007Z,83.30
